EDT,Max TemperatureF,Mean TemperatureF,Min TemperatureF,Max Dew PointF,MeanDew PointF,Min DewpointF,Max Humidity, Mean Humidity, Min Humidity, Max Sea Level PressureIn, Mean Sea Level PressureIn, Min Sea Level PressureIn, Max VisibilityMiles, Mean VisibilityMiles, Min VisibilityMiles, Max Wind SpeedMPH, Mean Wind SpeedMPH, Max Gust SpeedMPH,PrecipitationIn, CloudCover, Events, WindDirDegrees
2013-8-1,78,70,62,66,63,60,96,85,62,30.05,29.94,29.86,10,8,3,13,2,17,0.10,5,Rain,169
2013-8-2,82,74,66,66,64,57,100,83,44,29.90,29.83,29.79,10,8,2,8,3,21,0.07,5,Rain,306
2013-8-3,78,70,62,66,63,60,100,85,64,29.88,29.87,29.82,10,7,2,9,2,,0.01,2,Rain,204
2013-8-4,80,67,55,63,56,51,100,79,43,29.94,29.87,29.83,10,5,0,13,2,20,0.00,1,Fog,314
2013-8-5,77,64,53,55,49,42,93,62,31,30.05,30.00,29.94,10,10,10,14,5,24,0.00,0,,312
2013-8-6,79,66,52,60,54,49,93,69,40,30.14,30.11,30.06,10,10,10,10,2,,0.00,1,,157
2013-8-7,78,66,55,63,59,54,96,75,50,30.18,30.14,30.10,10,10,2,12,3,20,0.00,5,Rain,160
2013-8-8,80,74,69,72,68,64,100,86,74,30.08,30.06,30.03,10,8,2,12,6,20,0.01,7,Rain,174
2013-8-9,79,76,73,75,72,70,96,92,87,30.03,29.87,29.79,10,6,0,15,7,24,1.03,7,Fog-Rain,176
2013-8-10,82,72,61,71,64,57,100,83,45,30.05,29.92,29.83,10,5,0,8,2,,0.00,2,Fog,322
2013-8-11,79,66,53,61,55,49,93,67,40,30.12,30.07,30.03,10,10,10,7,3,,0.00,0,,255
2013-8-12,81,70,60,62,60,56,96,72,43,30.04,29.99,29.94,10,10,10,8,1,,0.00,2,,212
2013-8-13,75,68,62,70,66,61,96,87,66,29.95,29.81,29.70,10,6,1,7,1,,0.02,7,Rain,177
2013-8-14,75,66,57,63,51,48,90,59,41,30.01,29.84,29.73,10,10,10,18,7,23,0.00,2,,326
2013-8-15,77,62,48,58,50,45,93,64,34,30.12,30.08,30.04,10,10,10,9,2,,0.00,1,,288
2013-8-16,79,69,59,57,54,49,90,60,36,30.22,30.17,30.14,10,10,10,9,2,,0.00,2,,210
2013-8-17,82,68,54,62,55,49,93,69,33,30.29,30.25,30.22,10,10,5,5,1,,0.00,0,,355
2013-8-18,79,68,59,64,59,54,93,79,43,30.28,30.21,30.13,10,9,5,5,0,,0.00,1,Rain,222
2013-8-19,80,68,57,64,60,56,96,76,48,30.11,30.06,30.01,10,9,5,7,1,,0.00,0,,289
2013-8-20,86,72,59,65,60,56,100,79,37,30.13,30.07,30.03,10,6,0,9,1,,0.00,0,Fog,297
2013-8-21,88,74,59,67,61,57,96,74,39,30.17,30.12,30.05,10,7,2,6,1,,0.00,0,,243
2013-8-22,79,70,62,72,66,61,100,91,74,30.07,30.00,29.87,10,4,0,10,2,,0.13,4,Fog-Rain,176
2013-8-23,82,74,66,68,60,51,96,68,36,30.12,29.94,29.86,10,7,2,14,2,20,0.00,2,,360
2013-8-24,80,68,57,57,51,48,90,59,35,30.35,30.27,30.15,10,10,10,13,5,,0.00,0,,1
2013-8-25,82,66,51,58,52,47,100,75,31,30.39,30.32,30.22,10,7,1,10,1,,0.00,0,,197
2013-8-26,75,68,62,68,63,57,96,84,64,30.22,30.04,29.91,10,8,2,7,1,,0.17,6,Rain,184
2013-8-27,86,78,69,71,68,66,97,82,53,29.91,29.86,29.82,10,8,2,14,3,18,0.01,5,Rain,1
2013-8-28,87,75,64,70,67,64,100,89,49,29.91,29.88,29.83,10,4,0,15,1,18,0.00,3,Fog-Rain,2
2013-8-29,78,72,66,70,65,60,100,82,60,30.05,29.99,29.92,10,8,2,8,2,,0.00,7,,52
2013-8-30,82,73,64,68,64,60,90,81,56,30.04,29.96,29.86,10,10,5,6,1,,0.00,6,,177
2013-8-31,82,75,69,71,70,66,94,84,69,29.85,29.84,29.80,10,7,2,10,4,,0.00,3,,173